Emmonak, Alaska
Current Conditions -  °F | °C
As of 10:16 AM on Saturday 25 Oct 2014 (Local Time) from PAEM Reporting Station
Overcast Overcast  
Wind Chill: -5°   Ceiling: 600
Heat Index:   Visibility: 10mi
Dew Point: -2°   Wind: 17mph
Humidity: 81%   Direction: 180°S
Pressure: 29.62"   Gusts: NA
Location:  62.78°N, 164.53°W
Report Text: PAEM 251816Z 18015KT 10SM OVC006 01/M02 A2962 RMK AO1
Loading
Personal Weather Stations






























Interactive Weather Map
Tropical Storm Tracking
New forecast layout! Learn more

10-Day Weather Forecast

Advertisements
Track Severe Weather on mobile